createdAt,value
2022-07-25T00:00:09.403Z,12.80
2022-07-25T00:02:36.706Z,10.68
2022-07-25T00:05:04.029Z,8.23
2022-07-25T00:07:31.396Z,9.20
2022-07-25T00:09:58.749Z,8.85
2022-07-25T00:12:26.042Z,4.63
2022-07-25T00:14:53.388Z,10.25
2022-07-25T00:17:20.662Z,7.28
2022-07-25T00:19:47.922Z,13.65
2022-07-25T00:22:15.158Z,8.38
2022-07-25T00:24:42.489Z,7.47
2022-07-25T00:27:09.726Z,9.95
2022-07-25T00:29:37.206Z,8.10
2022-07-25T00:32:04.432Z,4.53
2022-07-25T00:34:31.764Z,9.13
2022-07-25T00:36:59.041Z,8.38
2022-07-25T00:39:26.405Z,8.05
2022-07-25T00:41:53.597Z,4.20
2022-07-25T00:44:20.894Z,13.63
2022-07-25T00:46:51.858Z,11.52
2022-07-25T00:49:19.345Z,7.18
2022-07-25T00:51:46.692Z,9.85
2022-07-25T00:54:13.942Z,9.50
2022-07-25T00:56:41.221Z,10.75
2022-07-25T00:59:08.460Z,12.02
2022-07-25T01:01:35.854Z,7.53
2022-07-25T01:04:03.931Z,11.35
2022-07-25T01:06:31.413Z,6.97
2022-07-25T01:08:58.689Z,13.88
2022-07-25T01:11:26.037Z,9.07
2022-07-25T01:13:53.325Z,8.93
2022-07-25T01:16:20.726Z,6.25
2022-07-25T01:18:48.012Z,10.35
2022-07-25T01:21:15.278Z,9.55
2022-07-25T01:23:42.537Z,8.85
2022-07-25T01:26:09.813Z,4.63
2022-07-25T01:28:37.123Z,10.15
2022-07-25T01:31:04.540Z,7.75
2022-07-25T01:33:31.879Z,6.05
2022-07-25T01:35:59.170Z,4.10
2022-07-25T01:38:26.431Z,13.07
2022-07-25T01:40:53.698Z,5.53
2022-07-25T01:43:20.989Z,10.27
2022-07-25T01:45:48.363Z,9.55
2022-07-25T01:48:15.699Z,10.02
2022-07-25T01:50:44.168Z,19.85
2022-07-25T01:53:12.080Z,6.97
2022-07-25T01:55:39.291Z,9.50
2022-07-25T01:58:07.439Z,8.27
2022-07-25T02:00:35.537Z,11.98
2022-07-25T02:03:21.553Z,8.02
2022-07-25T02:05:48.867Z,14.30
2022-07-25T02:08:16.085Z,12.40
2022-07-25T02:10:44.376Z,7.22
2022-07-25T02:13:11.740Z,7.38
2022-07-25T02:15:39.118Z,6.40
2022-07-25T02:18:06.329Z,9.90
2022-07-25T02:20:33.617Z,12.68
2022-07-25T02:23:00.850Z,6.70
2022-07-25T02:25:28.111Z,10.00
2022-07-25T02:27:55.460Z,8.82
2022-07-25T02:30:22.657Z,7.72
2022-07-25T02:32:49.899Z,10.07
2022-07-25T02:35:17.176Z,12.75
2022-07-25T02:37:44.437Z,13.00
2022-07-25T02:40:11.613Z,9.93
2022-07-25T02:42:38.878Z,8.13
2022-07-25T02:45:06.121Z,11.98
2022-07-25T02:47:33.508Z,15.27
2022-07-25T02:50:00.721Z,9.18
2022-07-25T02:52:27.989Z,6.93
2022-07-25T02:54:55.281Z,11.20
2022-07-25T02:57:22.558Z,8.98
2022-07-25T02:59:49.818Z,12.73
2022-07-25T03:02:17.164Z,7.60
2022-07-25T03:04:44.394Z,12.60
2022-07-25T03:07:11.688Z,14.82
2022-07-25T03:09:38.913Z,10.00
2022-07-25T03:12:06.212Z,10.18
2022-07-25T03:14:33.631Z,11.40
2022-07-25T03:17:00.976Z,11.02
2022-07-25T03:19:29.035Z,10.35
2022-07-25T03:21:56.391Z,12.80
2022-07-25T03:24:23.581Z,12.45
2022-07-25T03:26:50.887Z,9.90
2022-07-25T03:29:18.141Z,19.60
2022-07-25T03:31:45.438Z,20.10
2022-07-25T03:34:12.712Z,15.50
2022-07-25T03:36:40.027Z,11.75
2022-07-25T03:39:07.226Z,17.13
2022-07-25T03:41:34.526Z,11.07
2022-07-25T03:44:01.792Z,12.35
2022-07-25T03:46:29.141Z,9.48
2022-07-25T03:48:56.502Z,17.75
2022-07-25T03:51:23.754Z,17.58
2022-07-25T03:54:03.849Z,10.77
2022-07-25T03:56:31.579Z,12.07
2022-07-25T03:58:58.843Z,16.58
2022-07-25T04:01:27.077Z,9.93
2022-07-25T04:03:54.348Z,11.18
2022-07-25T04:06:21.670Z,9.70
2022-07-25T04:08:48.916Z,19.40
2022-07-25T04:11:16.187Z,16.73
2022-07-25T04:13:43.450Z,14.10
2022-07-25T04:16:16.351Z,14.55
2022-07-25T04:18:50.459Z,11.52
2022-07-25T04:21:17.707Z,10.18
2022-07-25T04:23:44.989Z,14.55
2022-07-25T04:26:12.233Z,16.08
2022-07-25T04:28:39.519Z,18.50
2022-07-25T04:31:06.740Z,13.82
2022-07-25T04:33:33.993Z,11.25
2022-07-25T04:36:01.227Z,11.25
2022-07-25T04:38:28.496Z,12.90
2022-07-25T04:40:55.736Z,18.65
2022-07-25T04:43:23.239Z,13.32
2022-07-25T04:45:50.549Z,17.45
2022-07-25T04:48:17.897Z,11.07
2022-07-25T04:50:45.305Z,20.65
2022-07-25T04:53:12.599Z,12.20
2022-07-25T04:55:40.803Z,12.68
2022-07-25T04:58:08.169Z,17.85
2022-07-25T05:00:35.489Z,11.40
2022-07-25T05:03:02.814Z,18.77
2022-07-25T05:05:30.059Z,17.63
2022-07-25T05:07:57.324Z,14.20
2022-07-25T05:10:24.649Z,13.40
2022-07-25T05:12:51.944Z,14.73
2022-07-25T05:15:19.221Z,14.63
2022-07-25T05:17:46.508Z,11.43
2022-07-25T05:20:13.843Z,13.57
2022-07-25T05:22:41.100Z,12.35
2022-07-25T05:25:08.461Z,11.18
2022-07-25T05:27:35.716Z,12.52
2022-07-25T05:30:03.031Z,14.93
2022-07-25T05:32:30.319Z,14.43
2022-07-25T05:34:57.601Z,20.48
2022-07-25T05:37:24.848Z,16.40
2022-07-25T05:39:52.362Z,16.90
2022-07-25T05:42:19.787Z,21.50
2022-07-25T05:44:47.010Z,12.95
2022-07-25T05:47:14.324Z,12.98
2022-07-25T05:49:41.594Z,15.52
2022-07-25T05:52:12.797Z,11.70
2022-07-25T05:54:42.937Z,18.15
2022-07-25T05:57:10.237Z,11.82
2022-07-25T05:59:37.489Z,14.65
2022-07-25T06:02:04.971Z,12.57
2022-07-25T06:04:32.285Z,12.55
2022-07-25T06:06:59.593Z,11.45
2022-07-25T06:09:26.962Z,10.75
2022-07-25T06:12:00.126Z,12.43
2022-07-25T06:14:28.703Z,11.20
2022-07-25T06:16:55.957Z,11.43
2022-07-25T06:19:23.272Z,8.57
2022-07-25T06:21:50.833Z,6.30
2022-07-25T06:24:18.170Z,6.78
2022-07-25T06:26:45.471Z,9.63
2022-07-25T06:29:12.805Z,10.07
2022-07-25T06:31:40.126Z,10.18
2022-07-25T06:34:07.867Z,8.23
2022-07-25T06:36:35.456Z,9.32
2022-07-25T06:39:03.352Z,12.13
2022-07-25T06:41:30.653Z,6.47
2022-07-25T06:43:57.999Z,5.25
2022-07-25T06:46:26.740Z,8.70
2022-07-25T06:48:54.121Z,6.93
2022-07-25T06:51:23.049Z,10.13
2022-07-25T06:53:50.333Z,10.20
2022-07-25T06:56:17.904Z,14.25
2022-07-25T06:58:45.299Z,13.73
2022-07-25T07:01:12.651Z,5.72
2022-07-25T07:03:40.457Z,6.88
2022-07-25T07:06:07.927Z,5.30
2022-07-25T07:08:35.154Z,9.73
2022-07-25T07:11:02.435Z,9.57
2022-07-25T07:13:29.739Z,9.00
2022-07-25T07:15:57.115Z,8.43
2022-07-25T07:18:24.384Z,12.10
2022-07-25T07:20:52.298Z,11.13
2022-07-25T07:23:19.603Z,11.35
2022-07-25T07:25:47.224Z,12.65
2022-07-25T07:28:14.794Z,9.57
2022-07-25T07:31:14.647Z,5.57
2022-07-25T07:33:29.358Z,8.82
2022-07-25T07:35:57.235Z,9.77
2022-07-25T07:38:24.644Z,10.25
2022-07-25T07:40:51.979Z,8.00
2022-07-25T07:43:19.267Z,6.38
2022-07-25T07:45:46.514Z,8.68
2022-07-25T07:48:13.821Z,10.95
2022-07-25T07:50:41.120Z,13.27
2022-07-25T07:53:08.554Z,7.32
2022-07-25T07:55:45.533Z,10.90
2022-07-25T07:58:12.976Z,4.43
2022-07-25T08:00:40.405Z,10.70
2022-07-25T08:03:08.909Z,5.60
2022-07-25T08:05:36.381Z,7.75
2022-07-25T08:08:04.751Z,6.00
2022-07-25T08:10:32.190Z,6.07
2022-07-25T08:12:59.534Z,7.20
2022-07-25T08:15:26.869Z,10.90
2022-07-25T08:17:54.215Z,3.13
2022-07-25T08:20:38.396Z,6.13
2022-07-25T08:23:06.194Z,6.00
2022-07-25T08:25:33.558Z,3.25
2022-07-25T08:28:03.792Z,1.65
2022-07-25T08:30:31.235Z,4.72
2022-07-25T08:32:59.734Z,4.50
2022-07-25T08:35:26.977Z,2.40
2022-07-25T08:37:54.407Z,7.03
2022-07-25T08:40:21.636Z,4.82
2022-07-25T08:42:48.909Z,4.50
2022-07-25T08:45:22.505Z,4.47
2022-07-25T08:47:50.160Z,5.87
2022-07-25T08:50:17.446Z,5.40
2022-07-25T08:52:45.579Z,7.50
2022-07-25T08:55:14.721Z,6.57
2022-07-25T08:57:44.183Z,6.93
2022-07-25T09:00:12.354Z,5.20
2022-07-25T09:02:39.655Z,8.95
2022-07-25T09:05:06.987Z,4.18
2022-07-25T09:07:34.269Z,4.97
2022-07-25T09:10:01.560Z,6.40
2022-07-25T09:12:28.850Z,7.15
2022-07-25T09:14:56.164Z,5.65
2022-07-25T09:17:23.849Z,5.57
2022-07-25T09:19:52.776Z,6.70
2022-07-25T09:22:20.118Z,7.57
2022-07-25T09:24:47.341Z,3.33
2022-07-25T09:27:15.092Z,8.15
2022-07-25T09:29:45.910Z,12.07
2022-07-25T09:32:13.200Z,4.97
2022-07-25T09:34:40.447Z,6.25
2022-07-25T09:37:08.151Z,5.30
2022-07-25T09:39:35.384Z,9.95
2022-07-25T09:42:03.122Z,8.10
2022-07-25T09:44:30.532Z,7.20
2022-07-25T09:47:00.970Z,4.38
2022-07-25T09:49:28.317Z,5.28
2022-07-25T09:51:55.613Z,8.88
2022-07-25T09:54:24.143Z,8.48
2022-07-25T09:56:51.393Z,4.43
2022-07-25T09:59:18.722Z,4.30
2022-07-25T10:01:46.123Z,7.18
2022-07-25T10:04:13.878Z,2.33
2022-07-25T10:06:41.290Z,9.10
2022-07-25T10:09:08.534Z,3.22
2022-07-25T10:11:35.768Z,2.28
2022-07-25T10:14:03.116Z,3.08
2022-07-25T10:16:30.439Z,5.10
2022-07-25T10:18:57.892Z,4.10
2022-07-25T10:21:27.206Z,5.30
2022-07-25T10:23:55.122Z,5.20
2022-07-25T10:26:22.522Z,5.57
2022-07-25T10:28:49.846Z,8.43
2022-07-25T10:31:17.230Z,3.55
2022-07-25T10:33:44.685Z,5.97
2022-07-25T10:36:11.905Z,3.80
2022-07-25T10:38:40.054Z,6.57
2022-07-25T10:41:09.151Z,3.80
2022-07-25T10:43:36.470Z,5.53
2022-07-25T10:46:03.747Z,6.68
2022-07-25T10:48:31.197Z,6.97
2022-07-25T10:50:58.698Z,4.93
2022-07-25T10:53:26.083Z,4.25
2022-07-25T10:56:05.359Z,3.90
2022-07-25T10:58:33.639Z,2.78
2022-07-25T11:01:01.008Z,4.10
2022-07-25T11:03:28.303Z,1.63
2022-07-25T11:05:56.145Z,1.80
2022-07-25T11:08:24.059Z,2.60
2022-07-25T11:10:52.319Z,4.43
2022-07-25T11:13:19.554Z,3.50
2022-07-25T11:15:46.959Z,4.40
2022-07-25T11:18:14.197Z,7.00
2022-07-25T11:20:41.488Z,3.03
2022-07-25T11:23:08.723Z,4.15
2022-07-25T11:25:36.072Z,3.92
2022-07-25T11:28:03.961Z,3.47
2022-07-25T11:30:31.352Z,4.80
2022-07-25T11:32:58.646Z,7.43
2022-07-25T11:35:26.057Z,3.80
2022-07-25T11:37:53.359Z,5.50
2022-07-25T11:40:20.647Z,3.72
2022-07-25T11:42:48.077Z,6.20
2022-07-25T11:45:15.378Z,5.82
2022-07-25T11:47:42.668Z,9.65
2022-07-25T11:50:14.794Z,2.47
2022-07-25T11:52:48.387Z,3.15
2022-07-25T11:55:15.688Z,2.38
2022-07-25T11:57:44.419Z,7.80
2022-07-25T12:00:12.346Z,3.78
2022-07-25T12:02:39.730Z,4.18
2022-07-25T12:05:07.296Z,2.83
2022-07-25T12:07:34.540Z,2.75
2022-07-25T12:10:01.834Z,2.25
2022-07-25T12:12:29.150Z,2.38
2022-07-25T12:14:56.977Z,6.28
2022-07-25T12:17:24.453Z,1.70
2022-07-25T12:19:51.663Z,5.43
2022-07-25T12:22:18.952Z,2.70
2022-07-25T12:24:46.510Z,5.00
2022-07-25T12:27:13.814Z,3.35
2022-07-25T12:29:41.114Z,5.95
2022-07-25T12:32:08.415Z,7.22
2022-07-25T12:34:35.686Z,5.90
2022-07-25T12:37:02.940Z,4.45
2022-07-25T12:39:30.243Z,2.75
2022-07-25T12:41:57.557Z,4.50
2022-07-25T12:44:24.844Z,6.70
2022-07-25T12:46:52.240Z,3.20
2022-07-25T12:49:19.546Z,2.67
2022-07-25T12:51:46.897Z,1.85
2022-07-25T12:54:21.661Z,7.35
2022-07-25T12:56:49.756Z,4.45
2022-07-25T12:59:17.015Z,5.03
2022-07-25T13:01:44.365Z,3.60
2022-07-25T13:04:11.582Z,3.28
2022-07-25T13:06:39.139Z,0.65
2022-07-25T13:09:06.721Z,3.38
2022-07-25T13:11:34.357Z,0.68
2022-07-25T13:14:01.848Z,4.00
2022-07-25T13:16:29.292Z,5.70
2022-07-25T13:18:56.546Z,3.03
2022-07-25T13:21:24.868Z,8.35
2022-07-25T13:23:52.420Z,2.10
2022-07-25T13:26:19.695Z,3.17
2022-07-25T13:28:46.966Z,1.15
2022-07-25T13:31:14.373Z,1.92
2022-07-25T13:33:41.728Z,2.35
2022-07-25T13:36:09.325Z,2.80
2022-07-25T13:38:38.816Z,1.77
2022-07-25T13:41:06.184Z,1.60
2022-07-25T13:43:33.556Z,2.40
2022-07-25T13:46:01.044Z,2.47
2022-07-25T13:48:30.842Z,0.98
2022-07-25T13:50:58.920Z,10.77
2022-07-25T13:53:29.939Z,0.30
2022-07-25T13:55:58.305Z,3.33
2022-07-25T13:58:25.584Z,5.07
2022-07-25T14:00:53.065Z,1.60
2022-07-25T14:03:20.882Z,1.25
2022-07-25T14:05:48.330Z,5.10
2022-07-25T14:08:15.585Z,3.35
2022-07-25T14:10:42.911Z,3.95
2022-07-25T14:13:10.204Z,2.60
2022-07-25T14:15:38.360Z,2.45
2022-07-25T14:18:05.642Z,2.35
2022-07-25T14:20:33.199Z,4.85
2022-07-25T14:23:00.415Z,1.55
2022-07-25T14:25:27.706Z,2.95
2022-07-25T14:27:54.941Z,1.80
2022-07-25T14:30:22.250Z,1.50
2022-07-25T14:32:49.468Z,3.72
2022-07-25T14:35:16.759Z,2.20
2022-07-25T14:37:43.985Z,1.92
2022-07-25T14:40:11.699Z,3.88
2022-07-25T14:42:40.246Z,3.17
2022-07-25T14:45:07.530Z,3.97
2022-07-25T14:47:35.276Z,4.00
2022-07-25T14:50:02.565Z,2.72
2022-07-25T14:52:29.825Z,2.45
2022-07-25T14:54:57.085Z,8.25
2022-07-25T14:57:24.314Z,1.20
2022-07-25T14:59:51.704Z,4.70
2022-07-25T15:02:19.535Z,4.07
2022-07-25T15:04:47.033Z,3.80
2022-07-25T15:07:14.465Z,4.97
2022-07-25T15:09:41.818Z,5.25
2022-07-25T15:12:12.180Z,4.35
2022-07-25T15:14:43.476Z,3.53
2022-07-25T15:17:10.828Z,3.05
2022-07-25T15:19:38.119Z,4.13
2022-07-25T15:22:07.804Z,2.58
2022-07-25T15:24:44.458Z,4.05
2022-07-25T15:27:22.574Z,6.45
2022-07-25T15:29:50.236Z,2.22
2022-07-25T15:32:17.908Z,3.50
2022-07-25T15:34:45.250Z,3.72
2022-07-25T15:37:12.670Z,2.72
2022-07-25T15:39:40.312Z,6.05
2022-07-25T15:42:07.786Z,5.07
2022-07-25T15:44:35.191Z,3.20
2022-07-25T15:47:02.528Z,3.42
2022-07-25T15:49:29.951Z,3.65
2022-07-25T15:51:57.194Z,3.40
2022-07-25T15:54:29.398Z,4.97
2022-07-25T15:57:00.023Z,4.43
2022-07-25T15:59:28.726Z,5.10
2022-07-25T16:01:56.134Z,2.90
2022-07-25T16:04:23.548Z,4.55
2022-07-25T16:06:51.191Z,4.32
2022-07-25T16:09:19.429Z,1.83
2022-07-25T16:11:51.646Z,4.93
2022-07-25T16:14:22.568Z,10.57
2022-07-25T16:17:01.280Z,1.65
2022-07-25T16:19:33.322Z,3.03
2022-07-25T16:22:00.664Z,5.45
2022-07-25T16:24:27.962Z,1.65
2022-07-25T16:26:55.340Z,4.60
2022-07-25T16:29:22.706Z,2.67
2022-07-25T16:31:50.512Z,2.45
2022-07-25T16:34:17.919Z,3.97
2022-07-25T16:36:45.276Z,3.38
2022-07-25T16:39:12.744Z,4.28
2022-07-25T16:41:40.129Z,4.05
2022-07-25T16:44:07.657Z,5.65
2022-07-25T16:46:35.014Z,6.13
2022-07-25T16:49:02.405Z,7.82
2022-07-25T16:51:32.041Z,3.85
2022-07-25T16:54:02.695Z,4.72
2022-07-25T16:56:29.988Z,2.42
2022-07-25T16:58:57.459Z,4.45
2022-07-25T17:01:26.807Z,2.20
2022-07-25T17:03:54.609Z,4.43
2022-07-25T17:06:21.937Z,1.27
2022-07-25T17:08:49.311Z,2.95
2022-07-25T17:11:16.681Z,3.95
2022-07-25T17:13:43.994Z,3.30
2022-07-25T17:16:11.405Z,3.65
2022-07-25T17:18:38.847Z,1.67
2022-07-25T17:21:06.117Z,1.60
2022-07-25T17:23:33.808Z,2.42
2022-07-25T17:26:01.583Z,2.40
2022-07-25T17:28:29.142Z,4.47
2022-07-25T17:30:56.457Z,3.85
2022-07-25T17:33:23.852Z,5.65
2022-07-25T17:35:52.338Z,3.13
2022-07-25T17:38:25.368Z,5.25
2022-07-25T17:40:53.305Z,5.32
2022-07-25T17:43:20.672Z,2.20
2022-07-25T17:45:48.031Z,5.00
2022-07-25T17:48:15.392Z,4.43
2022-07-25T17:50:42.686Z,5.07
2022-07-25T17:53:09.965Z,3.40
2022-07-25T17:55:39.145Z,2.60
2022-07-25T17:58:06.643Z,3.50
2022-07-25T18:00:34.010Z,4.78
2022-07-25T18:03:01.441Z,1.55
2022-07-25T18:05:28.786Z,2.45
2022-07-25T18:07:56.125Z,5.40
2022-07-25T18:10:23.479Z,1.85
2022-07-25T18:12:50.858Z,4.10
2022-07-25T18:15:18.091Z,6.95
2022-07-25T18:17:45.530Z,3.35
2022-07-25T18:20:12.910Z,2.33
2022-07-25T18:22:41.303Z,1.95
2022-07-25T18:25:09.334Z,9.25
2022-07-25T18:27:36.716Z,1.40
2022-07-25T18:30:05.986Z,6.05
2022-07-25T18:32:33.368Z,1.90
2022-07-25T18:35:00.684Z,1.27
2022-07-25T18:37:27.978Z,3.83
2022-07-25T18:39:55.305Z,4.95
2022-07-25T18:42:26.231Z,3.20
2022-07-25T18:44:56.971Z,5.78
2022-07-25T18:47:28.437Z,2.97
2022-07-25T18:49:59.704Z,5.63
2022-07-25T18:52:27.007Z,2.85
2022-07-25T18:54:54.258Z,1.35
2022-07-25T18:57:21.575Z,2.03
2022-07-25T18:59:48.819Z,4.15
2022-07-25T19:02:16.109Z,2.70
2022-07-25T19:04:43.456Z,2.22
2022-07-25T19:07:10.748Z,3.67
2022-07-25T19:09:38.050Z,1.02
2022-07-25T19:12:05.434Z,3.08
2022-07-25T19:14:32.724Z,3.75
2022-07-25T19:16:59.963Z,4.63
2022-07-25T19:19:27.337Z,3.63
2022-07-25T19:21:54.649Z,1.55
2022-07-25T19:24:22.060Z,3.67
2022-07-25T19:26:49.893Z,2.42
2022-07-25T19:29:17.183Z,7.72
2022-07-25T19:31:44.694Z,4.03
2022-07-25T19:34:12.267Z,3.88
2022-07-25T19:36:39.556Z,1.10
2022-07-25T19:39:06.916Z,2.38
2022-07-25T19:41:34.337Z,1.80
2022-07-25T19:44:01.609Z,1.48
2022-07-25T19:46:33.502Z,3.33
2022-07-25T19:49:00.989Z,1.13
2022-07-25T19:51:28.381Z,1.42
2022-07-25T19:53:55.711Z,3.85
2022-07-25T19:56:23.080Z,5.93
2022-07-25T19:58:50.339Z,6.13
2022-07-25T20:01:17.708Z,4.10
2022-07-25T20:03:45.221Z,3.47
2022-07-25T20:06:12.498Z,0.80
2022-07-25T20:08:40.226Z,1.08
2022-07-25T20:11:07.640Z,3.58
2022-07-25T20:13:34.924Z,2.53
2022-07-25T20:16:03.936Z,2.47
2022-07-25T20:18:31.422Z,3.42
2022-07-25T20:20:58.718Z,4.82
2022-07-25T20:23:26.013Z,1.25
2022-07-25T20:25:53.390Z,1.58
2022-07-25T20:28:20.681Z,1.67
2022-07-25T20:30:47.957Z,3.40
2022-07-25T20:33:15.351Z,0.77
2022-07-25T20:35:42.659Z,4.35
2022-07-25T20:38:10.445Z,2.10
2022-07-25T20:40:38.873Z,2.05
2022-07-25T20:43:06.274Z,2.47
2022-07-25T20:45:33.585Z,5.78
2022-07-25T20:48:00.912Z,1.42
2022-07-25T20:50:28.249Z,2.03
2022-07-25T20:52:55.491Z,2.53
2022-07-25T20:55:22.822Z,2.65
2022-07-25T20:57:50.889Z,1.92
2022-07-25T21:00:18.331Z,1.23
2022-07-25T21:02:45.693Z,4.45
2022-07-25T21:05:13.005Z,0.68
2022-07-25T21:07:40.382Z,0.98
2022-07-25T21:10:07.826Z,1.98
2022-07-25T21:12:35.097Z,2.92
2022-07-25T21:15:02.374Z,3.42
2022-07-25T21:17:29.650Z,1.10
2022-07-25T21:19:56.998Z,3.13
2022-07-25T21:22:24.547Z,1.65
2022-07-25T21:24:53.824Z,6.60
2022-07-25T21:27:21.514Z,0.95
2022-07-25T21:29:49.023Z,0.82
2022-07-25T21:32:17.427Z,1.60
2022-07-25T21:34:45.723Z,1.73
2022-07-25T21:37:13.377Z,1.60
2022-07-25T21:39:40.870Z,0.60
2022-07-25T21:42:11.855Z,1.27
2022-07-25T21:44:39.217Z,1.50
2022-07-25T21:47:06.475Z,3.17
2022-07-25T21:49:52.447Z,1.27
2022-07-25T21:52:19.909Z,1.77
2022-07-25T21:54:57.693Z,1.52
2022-07-25T21:57:25.048Z,1.95
2022-07-25T21:59:52.289Z,2.97
2022-07-25T22:02:19.853Z,2.50
2022-07-25T22:04:47.137Z,1.80
2022-07-25T22:07:14.562Z,4.63
2022-07-25T22:09:41.781Z,4.03
2022-07-25T22:12:09.103Z,2.97
2022-07-25T22:14:37.668Z,9.90
2022-07-25T22:17:05.705Z,2.53
2022-07-25T22:19:33.075Z,5.38
2022-07-25T22:22:00.353Z,2.03
2022-07-25T22:24:27.601Z,5.25
2022-07-25T22:26:54.926Z,1.48
2022-07-25T22:29:22.781Z,4.85
2022-07-25T22:31:50.202Z,2.42
2022-07-25T22:34:17.538Z,6.00
2022-07-25T22:36:45.085Z,5.10
2022-07-25T22:39:12.703Z,2.88
2022-07-25T22:41:40.147Z,1.90
2022-07-25T22:44:07.444Z,3.10
2022-07-25T22:46:34.767Z,2.58
2022-07-25T22:49:02.193Z,4.03
2022-07-25T22:51:29.666Z,4.38
2022-07-25T22:53:57.211Z,0.85
2022-07-25T22:56:24.552Z,3.88
2022-07-25T22:58:52.079Z,2.67
2022-07-25T23:01:19.677Z,5.13
2022-07-25T23:03:47.197Z,1.25
2022-07-25T23:06:14.552Z,5.47
2022-07-25T23:08:43.107Z,3.17
2022-07-25T23:11:10.364Z,3.58
2022-07-25T23:13:37.694Z,4.68
2022-07-25T23:16:05.268Z,4.53
2022-07-25T23:18:37.577Z,4.88
2022-07-25T23:21:04.879Z,4.60
2022-07-25T23:23:32.200Z,3.15
2022-07-25T23:25:59.524Z,5.15
2022-07-25T23:28:26.800Z,6.00
2022-07-25T23:30:54.151Z,3.63
2022-07-25T23:33:25.652Z,8.10
2022-07-25T23:35:53.399Z,4.78
2022-07-25T23:38:20.746Z,4.40
2022-07-25T23:40:48.021Z,3.38
2022-07-25T23:43:17.637Z,3.10
2022-07-25T23:46:02.763Z,5.50
2022-07-25T23:48:30.354Z,4.95
2022-07-25T23:50:57.693Z,3.50
2022-07-25T23:53:25.019Z,4.00
2022-07-25T23:55:52.297Z,5.10
2022-07-25T23:58:19.588Z,7.30
